Time;durP1;ratioP1;P1;durP2;ratioP2;P2;SDS_P1;SDS_P2;PMS_P1;PMS_P2;Temp;Humidity;BMP_temperature;BMP_pressure;BME280_temperature;BME280_humidity;BME280_pressure;Samples;Min_cycle;Max_cycle;Signal;HPM_P1;HPM_P2
2023/01/15 00:01:45;;;;;;;0.95;0.90;;;10.40;99.90;;;;;;5051924;28;20224;-79
2023/01/15 00:04:13;;;;;;;1.63;1.35;;;10.40;99.90;;;;;;5052069;28;20282;-77
2023/01/15 00:06:43;;;;;;;2.30;1.20;;;10.40;99.90;;;;;;5041283;28;20539;-80
2023/01/15 00:09:18;;;;;;;1.02;0.85;;;10.40;99.90;;;;;;5052545;28;20286;-77
2023/01/15 00:11:45;;;;;;;2.15;1.20;;;10.50;99.90;;;;;;5039843;28;20230;-77
2023/01/15 00:14:13;;;;;;;0.80;0.80;;;10.50;99.90;;;;;;5043982;28;20221;-79
2023/01/15 00:16:40;;;;;;;0.95;0.90;;;10.40;99.90;;;;;;5055550;28;20577;-80
2023/01/15 00:19:11;;;;;;;1.30;1.20;;;10.50;99.90;;;;;;5055753;28;20231;-77
2023/01/15 00:21:40;;;;;;;1.00;0.90;;;10.50;99.90;;;;;;5056459;28;20564;-77
2023/01/15 00:29:45;;;;;;;1.25;1.00;;;10.50;99.90;;;;;;5056139;28;20232;-77
2023/01/15 00:32:18;;;;;;;1.67;0.95;;;10.50;99.90;;;;;;5055454;28;20638;-80
2023/01/15 00:34:45;;;;;;;1.70;1.00;;;10.50;99.90;;;;;;5055686;28;20544;-80
2023/01/15 00:37:12;;;;;;;1.40;0.85;;;10.50;99.90;;;;;;5055593;28;20248;-77
2023/01/15 00:39:41;;;;;;;0.80;0.80;;;10.50;99.90;;;;;;5056624;28;20225;-80
2023/01/15 00:42:08;;;;;;;1.10;1.00;;;10.50;99.90;;;;;;5056323;28;20221;-80
2023/01/15 00:44:37;;;;;;;1.17;1.05;;;10.50;99.90;;;;;;5057279;28;20271;-78
2023/01/15 00:47:05;;;;;;;1.45;0.90;;;10.50;99.90;;;;;;5055931;28;20256;-79
2023/01/15 00:49:32;;;;;;;1.85;0.80;;;10.50;99.90;;;;;;5056261;28;20312;-77
2023/01/15 00:52:21;;;;;;;1.10;0.98;;;10.50;99.90;;;;;;5055414;28;20228;-80
2023/01/15 00:54:50;;;;;;;3.28;0.95;;;10.60;99.90;;;;;;5054390;28;20598;-80
2023/01/15 00:57:24;;;;;;;1.25;1.00;;;10.60;99.90;;;;;;5055744;28;20221;-80
2023/01/15 00:59:52;;;;;;;0.95;0.80;;;10.60;99.90;;;;;;5043736;28;20251;-77
2023/01/15 01:02:19;;;;;;;0.80;0.80;;;10.60;99.90;;;;;;5055468;28;20573;-79
2023/01/15 01:04:46;;;;;;;1.27;1.10;;;10.60;99.90;;;;;;5055685;28;20282;-78
2023/01/15 01:07:14;;;;;;;5.43;3.67;;;10.60;99.90;;;;;;5044793;28;20236;-79
2023/01/15 01:09:55;;;;;;;9.88;8.45;;;10.60;99.90;;;;;;5046942;28;20315;-80
2023/01/15 01:12:22;;;;;;;1.60;1.50;;;10.70;99.90;;;;;;5054015;28;20273;-77
2023/01/15 01:14:49;;;;;;;1.73;0.88;;;10.70;99.90;;;;;;5044426;28;20228;-77
2023/01/15 01:17:16;;;;;;;0.70;0.70;;;10.70;99.90;;;;;;5044235;28;20221;-76
2023/01/15 01:19:43;;;;;;;1.10;1.00;;;10.70;99.90;;;;;;5054702;28;20232;-77
2023/01/15 01:22:14;;;;;;;1.00;0.90;;;10.70;99.90;;;;;;5055555;28;20677;-78
2023/01/15 01:24:41;;;;;;;0.77;0.70;;;10.80;99.90;;;;;;5055855;28;20311;-78
2023/01/15 01:27:10;;;;;;;0.75;0.75;;;10.80;99.90;;;;;;5055779;28;20288;-77
2023/01/15 01:29:37;;;;;;;1.25;1.15;;;10.80;99.90;;;;;;5053702;28;20363;-77
2023/01/15 01:32:05;;;;;;;1.00;0.90;;;10.80;99.90;;;;;;5056874;28;20246;-76
2023/01/15 01:34:32;;;;;;;0.70;0.70;;;10.90;99.90;;;;;;5055495;28;20243;-77
2023/01/15 01:36:59;;;;;;;2.35;0.88;;;10.90;99.90;;;;;;5056613;28;20754;-77
2023/01/15 01:39:34;;;;;;;0.70;0.70;;;10.90;99.90;;;;;;5063484;28;20225;-80
2023/01/15 01:42:01;;;;;;;0.95;0.85;;;10.90;99.90;;;;;;5071048;28;20231;-79
2023/01/15 01:45:02;;;;;;;0.80;0.80;;;10.90;99.90;;;;;;5065494;28;20253;-78
2023/01/15 01:47:31;;;;;;;1.00;0.90;;;10.90;99.90;;;;;;5064246;28;20224;-77
2023/01/15 01:50:03;;;;;;;0.80;0.80;;;10.90;99.90;;;;;;5059936;28;20235;-77
2023/01/15 01:52:37;;;;;;;1.35;1.00;;;10.90;99.90;;;;;;5059961;28;20252;-80
2023/01/15 01:55:06;;;;;;;0.70;0.70;;;10.90;99.90;;;;;;5069422;28;20220;-80
2023/01/15 01:57:33;;;;;;;1.80;0.88;;;10.90;99.90;;;;;;5061737;28;20225;-76
2023/01/15 02:00:04;;;;;;;0.80;0.80;;;10.90;99.90;;;;;;5057034;28;20659;-77
2023/01/15 02:02:31;;;;;;;1.10;1.00;;;10.90;99.90;;;;;;5043653;28;20244;-77
2023/01/15 02:04:58;;;;;;;1.38;1.08;;;10.90;99.90;;;;;;5057647;28;20263;-79
2023/01/15 02:07:27;;;;;;;1.27;0.70;;;10.90;99.90;;;;;;5061228;28;20274;-78
2023/01/15 02:09:57;;;;;;;1.35;0.85;;;11.00;99.90;;;;;;5058793;28;20228;-77
2023/01/15 02:12:29;;;;;;;1.15;0.75;;;11.00;99.90;;;;;;5059059;28;20282;-75
2023/01/15 02:15:05;;;;;;;1.00;0.70;;;11.00;99.90;;;;;;5054090;28;20221;-76
2023/01/15 02:17:43;;;;;;;0.85;0.70;;;10.90;99.90;;;;;;5057499;28;20262;-78
2023/01/15 02:20:22;;;;;;;0.80;0.80;;;10.90;99.90;;;;;;5056771;28;20231;-78
2023/01/15 02:23:02;;;;;;;0.70;0.70;;;10.90;99.90;;;;;;5056278;28;20232;-76
2023/01/15 02:25:37;;;;;;;1.25;0.80;;;10.90;99.90;;;;;;5055136;28;20224;-76
2023/01/15 02:28:16;;;;;;;1.77;1.23;;;10.80;99.90;;;;;;5055102;28;20358;-79
2023/01/15 02:30:48;;;;;;;0.70;0.70;;;10.80;99.90;;;;;;5055085;28;20228;-78
2023/01/15 02:33:20;;;;;;;0.77;0.77;;;10.80;99.90;;;;;;5054953;28;20288;-76
2023/01/15 02:35:51;;;;;;;1.02;0.70;;;10.80;99.90;;;;;;5053572;28;20295;-78
2023/01/15 02:38:24;;;;;;;0.70;0.60;;;10.80;99.90;;;;;;5042880;28;20245;-79
2023/01/15 02:40:56;;;;;;;0.80;0.77;;;10.80;99.90;;;;;;5052660;28;20290;-79
2023/01/15 02:43:27;;;;;;;0.80;0.80;;;10.80;99.90;;;;;;5054389;28;20286;-79
2023/01/15 02:46:00;;;;;;;1.08;0.60;;;10.80;99.90;;;;;;5044843;28;20563;-79
2023/01/15 02:48:34;;;;;;;1.27;0.88;;;10.80;99.90;;;;;;5053914;28;20278;-80
2023/01/15 02:51:07;;;;;;;0.90;0.80;;;10.80;99.90;;;;;;5052829;28;20319;-77
2023/01/15 02:53:36;;;;;;;1.23;0.80;;;10.90;99.90;;;;;;5054480;28;20225;-79
2023/01/15 02:56:08;;;;;;;0.80;0.77;;;10.90;99.90;;;;;;5053551;28;20224;-77
2023/01/15 02:58:42;;;;;;;0.80;0.80;;;10.80;99.90;;;;;;5053327;28;20319;-76
2023/01/15 03:01:15;;;;;;;1.90;0.70;;;10.80;99.90;;;;;;5053561;28;20322;-77
2023/01/15 03:03:47;;;;;;;1.17;0.80;;;10.80;99.90;;;;;;5053986;28;20220;-75
2023/01/15 03:06:20;;;;;;;0.95;0.82;;;10.90;99.90;;;;;;5053236;28;20228;-79
2023/01/15 03:08:47;;;;;;;0.93;0.75;;;10.80;99.90;;;;;;5053389;28;20229;-76
2023/01/15 03:11:17;;;;;;;1.50;0.70;;;10.90;99.90;;;;;;5052329;28;20228;-77
2023/01/15 03:13:50;;;;;;;0.95;0.82;;;10.90;99.90;;;;;;5053528;28;20253;-79
2023/01/15 03:16:36;;;;;;;1.77;0.90;;;10.90;99.90;;;;;;5052381;28;20290;-77
2023/01/15 03:19:22;;;;;;;0.90;0.90;;;10.90;99.90;;;;;;5042819;28;20620;-80
2023/01/15 03:21:55;;;;;;;0.80;0.68;;;10.80;99.90;;;;;;5053414;28;20252;-80
2023/01/15 03:24:28;;;;;;;0.70;0.70;;;10.80;99.90;;;;;;5043865;28;20607;-77
2023/01/15 03:26:58;;;;;;;0.80;0.80;;;10.80;99.90;;;;;;5053136;28;20228;-77
2023/01/15 03:29:30;;;;;;;0.85;0.70;;;10.80;99.90;;;;;;5052116;28;20646;-77
2023/01/15 03:31:58;;;;;;;0.80;0.80;;;10.80;99.90;;;;;;5052998;28;20603;-79
2023/01/15 03:34:27;;;;;;;1.00;0.80;;;10.70;99.90;;;;;;5052173;28;20299;-77
2023/01/15 03:36:54;;;;;;;2.15;1.05;;;10.80;99.90;;;;;;5052975;28;20527;-78
2023/01/15 03:39:22;;;;;;;0.77;0.77;;;10.80;99.90;;;;;;5051771;28;20311;-79
2023/01/15 03:41:59;;;;;;;1.20;0.80;;;10.80;99.90;;;;;;5052777;28;20232;-76
2023/01/15 03:44:36;;;;;;;0.75;0.73;;;10.80;99.90;;;;;;5052868;28;20262;-76
2023/01/15 03:47:13;;;;;;;1.58;0.80;;;10.80;99.90;;;;;;5052967;28;20236;-79
2023/01/15 03:49:50;;;;;;;1.20;0.90;;;10.80;99.90;;;;;;5052846;28;20307;-81
2023/01/15 03:52:22;;;;;;;0.80;0.70;;;10.80;99.90;;;;;;5052158;28;20235;-80
2023/01/15 03:54:56;;;;;;;0.80;0.80;;;10.80;99.90;;;;;;5052847;28;20232;-80
2023/01/15 03:57:30;;;;;;;1.00;0.75;;;10.80;99.90;;;;;;5052488;28;20237;-80
2023/01/15 04:00:04;;;;;;;0.60;0.60;;;10.90;99.90;;;;;;5052529;28;20302;-80
2023/01/15 04:02:31;;;;;;;1.40;1.00;;;10.90;99.90;;;;;;5051306;28;20248;-80
2023/01/15 04:04:59;;;;;;;1.00;0.90;;;10.90;99.90;;;;;;5052142;28;20225;-77
2023/01/15 04:07:27;;;;;;;0.85;0.80;;;10.90;99.90;;;;;;5051724;28;20243;-78
2023/01/15 04:09:55;;;;;;;5.50;1.08;;;11.00;99.90;;;;;;5052444;28;20308;-80
2023/01/15 04:12:22;;;;;;;1.00;0.80;;;11.00;99.90;;;;;;5051857;28;20221;-78
2023/01/15 04:14:49;;;;;;;2.58;0.90;;;11.00;99.90;;;;;;5053091;28;20657;-80
2023/01/15 04:17:17;;;;;;;0.60;0.60;;;10.90;99.90;;;;;;5051981;28;20228;-80
2023/01/15 04:19:44;;;;;;;0.70;0.60;;;10.80;99.90;;;;;;5052660;28;20368;-79
2023/01/15 04:22:12;;;;;;;1.70;0.75;;;10.80;99.90;;;;;;5051848;28;20236;-79
2023/01/15 04:24:39;;;;;;;1.13;0.82;;;10.70;99.90;;;;;;5052862;28;20244;-79
2023/01/15 04:27:06;;;;;;;1.13;1.02;;;10.70;99.90;;;;;;5052810;28;20225;-79
2023/01/15 04:29:36;;;;;;;0.77;0.77;;;10.60;99.90;;;;;;5052324;28;20221;-79
2023/01/15 04:32:04;;;;;;;1.30;0.70;;;10.50;99.90;;;;;;5052348;28;20232;-79
2023/01/15 04:34:34;;;;;;;1.35;0.88;;;10.40;99.90;;;;;;5051140;28;20224;-77
2023/01/15 04:37:01;;;;;;;0.80;0.80;;;10.40;99.90;;;;;;5052282;28;20271;-79
2023/01/15 04:39:29;;;;;;;0.90;0.80;;;10.30;99.90;;;;;;5051895;28;20244;-76
2023/01/15 04:44:40;;;;;;;0.70;0.70;;;10.10;99.90;;;;;;5052074;28;20254;-78
2023/01/15 04:47:08;;;;;;;3.25;0.80;;;10.00;99.90;;;;;;5052502;28;20271;-76
2023/01/15 04:49:36;;;;;;;0.98;0.70;;;9.90;99.90;;;;;;5049460;28;20228;-76
2023/01/15 04:52:04;;;;;;;0.80;0.80;;;9.80;99.90;;;;;;5052229;28;20224;-76
2023/01/15 04:54:31;;;;;;;0.70;0.60;;;9.80;99.90;;;;;;5051223;28;20603;-79
2023/01/15 04:56:58;;;;;;;0.85;0.60;;;9.70;99.90;;;;;;5052020;28;20248;-78
2023/01/15 04:59:27;;;;;;;0.75;0.75;;;9.60;99.90;;;;;;5052092;28;20229;-76
2023/01/15 05:01:54;;;;;;;0.80;0.70;;;9.60;99.90;;;;;;5055860;28;20259;-78
2023/01/15 05:04:22;;;;;;;2.35;0.75;;;9.50;99.90;;;;;;5055137;28;20228;-78
2023/01/15 05:06:52;;;;;;;0.82;0.60;;;9.50;99.90;;;;;;5056389;28;20228;-76
2023/01/15 05:09:19;;;;;;;0.73;0.68;;;9.40;99.90;;;;;;5054893;28;20231;-78
2023/01/15 05:11:46;;;;;;;0.70;0.60;;;9.40;99.90;;;;;;5055512;28;20678;-76
2023/01/15 05:14:14;;;;;;;0.75;0.60;;;9.40;99.90;;;;;;5054880;28;20235;-78
2023/01/15 05:16:41;;;;;;;0.93;0.70;;;9.30;99.90;;;;;;5054842;28;20650;-77
2023/01/15 05:19:08;;;;;;;1.55;1.35;;;9.40;99.90;;;;;;5054485;28;20224;-79
2023/01/15 05:21:37;;;;;;;1.10;0.70;;;9.30;99.90;;;;;;5053973;28;20324;-80
2023/01/15 05:24:09;;;;;;;1.35;0.85;;;9.30;99.90;;;;;;5055505;28;20244;-80
2023/01/15 05:26:37;;;;;;;1.00;0.90;;;9.30;99.90;;;;;;5055083;28;20235;-79
2023/01/15 05:29:04;;;;;;;1.42;0.90;;;9.30;99.90;;;;;;5054994;28;20225;-79
2023/01/15 05:31:33;;;;;;;1.88;1.02;;;9.30;99.90;;;;;;5055399;28;20239;-80
2023/01/15 05:34:00;;;;;;;2.13;0.98;;;9.20;99.90;;;;;;5055389;28;20234;-77
2023/01/15 05:36:30;;;;;;;0.80;0.70;;;9.20;99.90;;;;;;5054531;28;20285;-77
2023/01/15 05:39:00;;;;;;;3.08;1.45;;;9.30;99.90;;;;;;5055275;28;20249;-78
2023/01/15 05:44:15;;;;;;;0.90;0.70;;;9.20;99.90;;;;;;5056252;28;20236;-77
2023/01/15 05:46:46;;;;;;;0.70;0.70;;;9.20;99.90;;;;;;5055112;28;20303;-78
2023/01/15 05:49:16;;;;;;;1.38;0.82;;;9.20;99.90;;;;;;5056606;28;20228;-79
2023/01/15 05:51:44;;;;;;;0.93;0.77;;;9.20;99.90;;;;;;5056108;28;20239;-77
2023/01/15 05:54:16;;;;;;;2.88;0.95;;;9.20;99.90;;;;;;5056556;28;20259;-79
2023/01/15 05:56:46;;;;;;;1.70;0.80;;;9.10;99.90;;;;;;5054664;28;20686;-78
2023/01/15 05:59:14;;;;;;;1.23;0.60;;;9.10;99.90;;;;;;5054838;28;20286;-77
2023/01/15 06:01:42;;;;;;;1.15;0.80;;;9.10;99.90;;;;;;5054743;28;20311;-78
2023/01/15 06:04:12;;;;;;;0.85;0.70;;;9.10;99.90;;;;;;5055385;28;20217;-77
2023/01/15 06:06:40;;;;;;;1.20;0.95;;;9.10;99.90;;;;;;5054618;28;20536;-78
2023/01/15 06:09:08;;;;;;;0.80;0.70;;;9.10;99.90;;;;;;5054202;28;20249;-76
2023/01/15 06:11:35;;;;;;;0.80;0.80;;;9.10;99.90;;;;;;5052770;28;20225;-78
2023/01/15 06:14:05;;;;;;;7.03;0.90;;;9.10;99.90;;;;;;5054561;28;20666;-78
2023/01/15 06:16:33;;;;;;;0.82;0.80;;;9.10;99.90;;;;;;5053890;28;20225;-78
2023/01/15 06:19:02;;;;;;;0.80;0.70;;;9.10;99.90;;;;;;5054358;28;20643;-78
2023/01/15 06:21:30;;;;;;;1.10;0.80;;;9.10;99.90;;;;;;5053383;28;20224;-76
2023/01/15 06:23:58;;;;;;;0.95;0.70;;;9.10;99.90;;;;;;5054543;28;20234;-77
2023/01/15 06:26:25;;;;;;;2.25;0.90;;;9.10;99.90;;;;;;5054346;28;20292;-76
2023/01/15 06:28:53;;;;;;;1.95;0.75;;;9.10;99.90;;;;;;5050621;28;20662;-76
2023/01/15 06:31:25;;;;;;;2.55;0.80;;;9.10;99.90;;;;;;5054535;28;20622;-76
2023/01/15 06:33:52;;;;;;;2.05;1.27;;;9.10;99.90;;;;;;5054129;28;20679;-79
2023/01/15 06:36:21;;;;;;;1.98;0.95;;;9.10;99.90;;;;;;5052774;28;20686;-78
2023/01/15 06:38:49;;;;;;;1.33;1.00;;;9.10;99.90;;;;;;5053652;28;20228;-76
2023/01/15 06:49:38;;;;;;;1.95;0.80;;;9.10;99.90;;;;;;5054584;28;20351;-78
2023/01/15 06:52:06;;;;;;;1.65;0.90;;;9.00;99.90;;;;;;5053667;28;20259;-76
2023/01/15 06:54:34;;;;;;;0.80;0.60;;;9.00;99.90;;;;;;5053924;28;20248;-79
2023/01/15 06:57:01;;;;;;;1.02;0.85;;;9.00;99.90;;;;;;5053960;28;20308;-79
2023/01/15 06:59:28;;;;;;;1.25;0.70;;;9.00;99.90;;;;;;5053516;28;20286;-79
2023/01/15 07:01:56;;;;;;;1.17;0.75;;;9.00;99.90;;;;;;5042825;28;20239;-79
2023/01/15 07:04:26;;;;;;;1.98;0.90;;;8.90;99.90;;;;;;5052991;28;20682;-76
2023/01/15 07:06:53;;;;;;;1.15;0.80;;;8.90;99.90;;;;;;5052797;28;20513;-77
2023/01/15 07:09:20;;;;;;;0.70;0.60;;;8.80;99.90;;;;;;5057217;28;20221;-76
2023/01/15 07:11:49;;;;;;;0.70;0.70;;;8.90;99.90;;;;;;5052056;28;20658;-77
2023/01/15 07:14:17;;;;;;;1.58;0.60;;;8.90;99.90;;;;;;5053378;28;20286;-76
2023/01/15 07:16:53;;;;;;;2.17;0.60;;;8.80;99.90;;;;;;5053442;28;20685;-79
2023/01/15 07:19:21;;;;;;;2.15;0.90;;;8.90;99.90;;;;;;5053697;28;20232;-79
2023/01/15 07:21:49;;;;;;;0.95;0.70;;;8.90;99.90;;;;;;5053775;28;20240;-76
2023/01/15 07:24:16;;;;;;;2.80;1.83;;;8.90;99.90;;;;;;5052267;28;20402;-76
2023/01/15 07:26:44;;;;;;;8.02;2.53;;;8.90;99.90;;;;;;5052164;28;20425;-79
2023/01/15 07:29:12;;;;;;;2.35;2.15;;;8.80;99.90;;;;;;5052707;28;20243;-77
2023/01/15 07:31:39;;;;;;;1.80;1.30;;;8.80;99.90;;;;;;5052800;28;20547;-77
2023/01/15 07:34:07;;;;;;;1.00;0.90;;;8.90;99.90;;;;;;5053488;28;20220;-79
2023/01/15 07:36:36;;;;;;;0.90;0.70;;;8.90;99.90;;;;;;5053607;28;20310;-76
2023/01/15 07:39:04;;;;;;;1.17;0.80;;;8.80;99.90;;;;;;5053131;28;20225;-79
2023/01/15 07:49:53;;;;;;;5.30;0.98;;;8.70;99.90;;;;;;5054952;28;20236;-76
2023/01/15 07:52:22;;;;;;;3.92;0.70;;;8.70;99.90;;;;;;5052665;28;20531;-77
2023/01/15 07:54:50;;;;;;;1.65;1.17;;;8.70;99.90;;;;;;5053309;28;20258;-77
2023/01/15 07:57:21;;;;;;;1.73;0.77;;;8.70;99.90;;;;;;5054213;28;20235;-76
2023/01/15 07:59:48;;;;;;;1.70;1.10;;;8.70;99.90;;;;;;5054549;28;20248;-77
2023/01/15 08:02:16;;;;;;;1.00;0.73;;;8.70;99.90;;;;;;5054414;28;20228;-79
2023/01/15 08:04:43;;;;;;;1.13;0.90;;;8.70;99.90;;;;;;5056153;28;20547;-77
2023/01/15 08:07:11;;;;;;;1.58;1.25;;;8.70;99.90;;;;;;5061058;28;20240;-79
2023/01/15 08:09:42;;;;;;;0.95;0.70;;;8.70;99.90;;;;;;5064600;28;20224;-77
2023/01/15 08:15:15;;;;;;;2.97;1.10;;;8.60;99.90;;;;;;5064880;28;20260;-78
2023/01/15 08:17:54;;;;;;;1.73;0.80;;;8.70;99.90;;;;;;5052879;28;20287;-77
2023/01/15 08:20:24;;;;;;;2.22;1.10;;;8.70;99.90;;;;;;5045547;28;20232;-77
2023/01/15 08:22:54;;;;;;;1.00;0.80;;;8.70;99.90;;;;;;5055913;28;20294;-78
2023/01/15 08:25:25;;;;;;;3.58;0.90;;;8.70;99.90;;;;;;5050243;28;20589;-79
2023/01/15 08:27:55;;;;;;;0.95;0.85;;;8.70;99.90;;;;;;5061255;28;20243;-76
2023/01/15 08:30:35;;;;;;;5.05;1.60;;;8.70;99.90;;;;;;5058067;28;20283;-77
2023/01/15 08:33:06;;;;;;;1.63;1.40;;;8.70;99.90;;;;;;5062077;28;20229;-78
2023/01/15 08:35:46;;;;;;;2.30;1.10;;;8.70;99.90;;;;;;5057744;28;20224;-78
2023/01/15 08:38:28;;;;;;;2.40;0.85;;;8.80;99.90;;;;;;5062329;28;20224;-78
2023/01/15 08:41:03;;;;;;;1.13;0.80;;;8.70;99.90;;;;;;5062070;28;20282;-78
2023/01/15 08:43:32;;;;;;;2.05;0.88;;;8.70;99.90;;;;;;5058626;28;20561;-79
2023/01/15 08:46:03;;;;;;;1.25;1.15;;;8.80;99.90;;;;;;5056462;28;20294;-77
2023/01/15 08:48:32;;;;;;;2.45;1.83;;;8.80;99.90;;;;;;5056144;28;20299;-76
2023/01/15 08:50:59;;;;;;;4.30;3.20;;;8.70;99.90;;;;;;5056203;28;20224;-79
2023/01/15 08:53:28;;;;;;;3.25;2.95;;;8.70;99.90;;;;;;5055831;28;20296;-79
2023/01/15 08:55:56;;;;;;;3.72;3.42;;;8.80;99.90;;;;;;5060940;28;20228;-77
2023/01/15 08:58:28;;;;;;;2.50;2.30;;;8.80;99.90;;;;;;5056217;28;20667;-76
2023/01/15 09:00:55;;;;;;;2.75;1.95;;;8.70;99.90;;;;;;5066541;28;20290;-79
2023/01/15 09:03:24;;;;;;;5.68;4.25;;;8.70;99.90;;;;;;5057427;28;20221;-79
2023/01/15 09:05:51;;;;;;;2.50;2.00;;;8.80;99.90;;;;;;5056149;28;20221;-79
2023/01/15 09:08:18;;;;;;;3.05;2.45;;;8.70;99.90;;;;;;5055241;28;20228;-79
2023/01/15 09:10:45;;;;;;;4.57;3.00;;;8.70;99.90;;;;;;5056815;28;20631;-79
2023/01/15 09:13:12;;;;;;;5.45;3.17;;;8.70;99.90;;;;;;5055823;28;20228;-79
2023/01/15 09:15:43;;;;;;;3.80;2.83;;;8.70;99.90;;;;;;5056051;28;20225;-79
2023/01/15 09:18:11;;;;;;;3.50;2.47;;;8.70;99.90;;;;;;5055168;28;20228;-79
2023/01/15 09:20:41;;;;;;;2.95;2.60;;;8.60;99.90;;;;;;5055582;28;20239;-77
2023/01/15 09:23:08;;;;;;;1.90;1.38;;;8.50;99.90;;;;;;5054988;28;20694;-77
2023/01/15 09:25:36;;;;;;;1.60;0.93;;;8.50;99.90;;;;;;5055473;28;20227;-77
2023/01/15 09:28:11;;;;;;;1.73;1.10;;;8.60;99.90;;;;;;5056645;28;20224;-79
2023/01/15 09:30:41;;;;;;;0.70;0.70;;;8.60;99.90;;;;;;5055803;28;20243;-79
2023/01/15 09:33:10;;;;;;;1.55;0.80;;;8.60;99.90;;;;;;5055731;28;20308;-78
2023/01/15 09:35:40;;;;;;;3.40;1.00;;;8.60;99.90;;;;;;5055669;28;20402;-77
2023/01/15 09:38:07;;;;;;;0.80;0.80;;;8.60;99.90;;;;;;5055345;28;20231;-79
2023/01/15 09:40:46;;;;;;;1.63;0.80;;;8.60;99.90;;;;;;5054768;28;20245;-77
2023/01/15 09:43:28;;;;;;;2.17;0.90;;;8.60;99.90;;;;;;5055240;28;20270;-77
2023/01/15 09:46:02;;;;;;;1.95;0.85;;;8.60;99.90;;;;;;5055371;28;20236;-80
2023/01/15 09:48:40;;;;;;;0.70;0.70;;;8.60;99.90;;;;;;5054746;28;20248;-77
2023/01/15 09:51:19;;;;;;;1.30;1.00;;;8.60;99.90;;;;;;5054577;28;20248;-78
2023/01/15 09:54:11;;;;;;;2.38;0.95;;;8.60;99.90;;;;;;5054716;28;20224;-79
2023/01/15 09:56:39;;;;;;;1.23;1.00;;;8.70;99.90;;;;;;5053281;28;20225;-78
2023/01/15 09:59:22;;;;;;;1.55;0.95;;;8.70;99.90;;;;;;5054996;28;20278;-80
2023/01/15 10:01:52;;;;;;;0.80;0.73;;;8.80;99.90;;;;;;5056495;28;20303;-79
2023/01/15 10:04:34;;;;;;;1.23;1.13;;;8.80;99.90;;;;;;5054360;28;20227;-79
2023/01/15 10:07:17;;;;;;;0.88;0.80;;;8.90;99.90;;;;;;5053628;28;20290;-79
2023/01/15 10:09:46;;;;;;;4.65;1.35;;;8.90;99.90;;;;;;5043356;28;20272;-76
2023/01/15 10:12:49;;;;;;;1.25;0.90;;;9.00;99.90;;;;;;5053249;28;20278;-76
2023/01/15 10:15:27;;;;;;;0.80;0.70;;;9.00;99.90;;;;;;5054121;28;20535;-77
2023/01/15 10:18:00;;;;;;;0.93;0.82;;;9.00;99.90;;;;;;5054465;28;20236;-79
2023/01/15 10:20:51;;;;;;;1.00;0.88;;;9.00;99.90;;;;;;5053815;28;20567;-76
2023/01/15 10:23:39;;;;;;;1.02;0.90;;;9.00;99.90;;;;;;5053639;28;20232;-80
2023/01/15 10:26:17;;;;;;;1.50;1.00;;;9.00;99.90;;;;;;5054064;28;20538;-79
2023/01/15 10:29:03;;;;;;;2.60;2.40;;;9.00;99.90;;;;;;5053252;28;20228;-78
2023/01/15 10:31:52;;;;;;;2.10;1.90;;;9.00;99.90;;;;;;5053473;28;20658;-78
2023/01/15 10:34:39;;;;;;;2.30;1.80;;;9.00;99.90;;;;;;5043328;28;20570;-80
2023/01/15 10:37:17;;;;;;;9.25;5.47;;;9.00;99.90;;;;;;5052619;28;20278;-78
2023/01/15 10:39:51;;;;;;;5.60;3.60;;;9.00;99.90;;;;;;5041556;28;20306;-77
2023/01/15 10:42:34;;;;;;;6.35;4.30;;;9.10;99.90;;;;;;5050005;28;20302;-78
2023/01/15 10:45:09;;;;;;;2.20;1.60;;;9.10;99.90;;;;;;5030614;28;20242;-78
2023/01/15 10:48:03;;;;;;;1.40;1.20;;;9.20;99.90;;;;;;5053638;28;20234;-79
2023/01/15 10:50:33;;;;;;;0.70;0.70;;;9.10;99.90;;;;;;5051980;28;20563;-79
2023/01/15 10:53:14;;;;;;;3.08;0.95;;;9.20;99.90;;;;;;5053847;28;20693;-77
2023/01/15 10:55:45;;;;;;;3.33;2.70;;;9.20;99.90;;;;;;5053384;28;20234;-77
2023/01/15 10:58:19;;;;;;;4.13;3.38;;;9.20;99.90;;;;;;5044797;28;20286;-77
2023/01/15 11:00:52;;;;;;;5.22;3.35;;;9.20;99.90;;;;;;5052951;28;20591;-77
2023/01/15 11:03:25;;;;;;;6.00;4.00;;;9.30;99.90;;;;;;5053004;28;20294;-77
2023/01/15 11:05:56;;;;;;;1.40;1.30;;;9.30;99.90;;;;;;5052840;28;20229;-79
2023/01/15 11:08:29;;;;;;;2.00;1.00;;;9.40;99.90;;;;;;5053562;28;20217;-79
2023/01/15 11:19:35;;;;;;;1.02;0.90;;;9.40;99.90;;;;;;5052440;28;20283;-78
2023/01/15 11:19:40;;;;;;;1.35;1.15;;;9.40;99.90;;;;;;5044207;28;20316;-77
2023/01/15 11:22:11;;;;;;;4.72;1.15;;;9.50;99.90;;;;;;5052162;28;20244;-76
2023/01/15 11:25:09;;;;;;;1.45;1.33;;;9.50;99.90;;;;;;5038081;28;20224;-78
2023/01/15 11:27:37;;;;;;;0.90;0.80;;;9.50;99.90;;;;;;5051564;28;20225;-76
2023/01/15 11:30:24;;;;;;;1.77;0.90;;;9.60;99.90;;;;;;5040851;28;20224;-79
2023/01/15 11:33:02;;;;;;;1.88;1.05;;;9.60;99.90;;;;;;5051732;28;20244;-79
2023/01/15 11:35:30;;;;;;;1.60;0.90;;;9.50;99.90;;;;;;5054456;28;20231;-77
2023/01/15 11:38:05;;;;;;;3.80;1.30;;;9.50;99.90;;;;;;5053380;28;20315;-80
2023/01/15 11:40:32;;;;;;;1.83;1.40;;;9.50;99.90;;;;;;5052303;28;20311;-80
2023/01/15 11:51:31;;;;;;;1.60;1.20;;;9.50;99.90;;;;;;5053591;28;20227;-78
2023/01/15 11:54:12;;;;;;;1.13;1.02;;;9.40;99.90;;;;;;5051910;28;20236;-79
2023/01/15 11:56:47;;;;;;;6.10;3.50;;;9.40;99.90;;;;;;5042748;28;20278;-79
2023/01/15 11:59:18;;;;;;;4.88;3.65;;;9.40;99.90;;;;;;5052737;28;20282;-79
2023/01/15 12:01:58;;;;;;;3.85;2.60;;;9.30;99.90;;;;;;5052308;28;20233;-78
2023/01/15 12:04:37;;;;;;;1.50;1.40;;;9.40;99.90;;;;;;5042106;28;20686;-79
2023/01/15 12:07:08;;;;;;;2.60;1.50;;;9.30;99.90;;;;;;5052691;28;20286;-80
2023/01/15 12:09:55;;;;;;;1.30;1.13;;;9.30;99.90;;;;;;5053091;28;20568;-80
2023/01/15 12:12:32;;;;;;;1.10;0.90;;;9.30;99.90;;;;;;5055320;28;20221;-80
2023/01/15 12:15:33;;;;;;;3.38;2.25;;;9.40;99.90;;;;;;5056694;28;20727;-77
2023/01/15 12:18:18;;;;;;;7.95;3.17;;;9.40;99.90;;;;;;5013829;28;20227;-80
2023/01/15 12:21:04;;;;;;;3.10;2.50;;;9.40;99.90;;;;;;5056710;28;20666;-81
2023/01/15 12:23:56;;;;;;;1.60;1.40;;;9.40;99.90;;;;;;5046230;28;20221;-81
2023/01/15 12:26:31;;;;;;;10.52;6.20;;;9.50;99.90;;;;;;5056161;28;20255;-77
2023/01/15 12:29:04;;;;;;;3.03;2.20;;;9.50;99.90;;;;;;5055882;28;20244;-77
2023/01/15 12:31:37;;;;;;;3.65;1.30;;;9.40;99.90;;;;;;5055609;28;20714;-79
2023/01/15 12:34:13;;;;;;;4.22;1.40;;;9.40;99.90;;;;;;5056564;28;20339;-81
2023/01/15 12:36:47;;;;;;;1.25;1.10;;;9.40;99.90;;;;;;5056581;28;20224;-79
2023/01/15 12:39:21;;;;;;;1.75;1.30;;;9.40;99.90;;;;;;5056579;28;20294;-77
2023/01/15 12:45:03;;;;;;;5.63;1.35;;;9.50;99.90;;;;;;5056108;28;20526;-80
2023/01/15 12:47:37;;;;;;;3.05;1.33;;;9.50;99.90;;;;;;5045593;28;20236;-79
2023/01/15 12:50:15;;;;;;;1.83;0.98;;;9.60;99.90;;;;;;5055027;28;20275;-79
2023/01/15 12:52:46;;;;;;;2.08;1.75;;;9.50;99.90;;;;;;5055382;28;20252;-80
2023/01/15 12:55:25;;;;;;;9.80;6.88;;;9.40;99.90;;;;;;5055883;28;20712;-79
2023/01/15 12:58:00;;;;;;;2.88;1.70;;;9.40;99.90;;;;;;5055144;28;20224;-78
2023/01/15 13:00:31;;;;;;;1.45;1.02;;;9.50;99.90;;;;;;5047385;28;20760;-80
2023/01/15 13:03:10;;;;;;;1.23;1.05;;;9.50;99.90;;;;;;5027761;28;20238;-79
2023/01/15 13:05:42;;;;;;;5.45;2.08;;;9.50;99.90;;;;;;5044775;28;20228;-76
2023/01/15 13:08:15;;;;;;;2.67;1.27;;;9.50;99.90;;;;;;5055609;28;20242;-79
2023/01/15 13:10:43;;;;;;;4.93;2.33;;;9.60;99.90;;;;;;5055592;28;20225;-79
2023/01/15 13:13:21;;;;;;;2.30;1.35;;;9.60;99.90;;;;;;5055590;28;20255;-77
2023/01/15 13:16:27;;;;;;;2.03;1.45;;;9.60;99.90;;;;;;5033885;28;20235;-77
2023/01/15 13:19:04;;;;;;;1.65;1.55;;;9.70;99.90;;;;;;5058809;28;20263;-80
2023/01/15 13:21:42;;;;;;;2.13;1.00;;;9.70;99.90;;;;;;5055633;28;20307;-77
2023/01/15 13:24:27;;;;;;;2.25;1.27;;;9.70;99.90;;;;;;5056965;28;20224;-79
2023/01/15 13:27:12;;;;;;;1.75;1.20;;;9.70;99.90;;;;;;5057673;28;20270;-77
2023/01/15 13:29:51;;;;;;;4.50;2.67;;;9.70;99.90;;;;;;5055148;28;20225;-80
2023/01/15 13:32:23;;;;;;;3.53;1.27;;;9.70;99.90;;;;;;5055070;28;20216;-77
2023/01/15 13:34:55;;;;;;;2.15;1.10;;;9.60;99.90;;;;;;5055625;28;20225;-80
2023/01/15 13:37:27;;;;;;;3.00;1.60;;;9.60;99.90;;;;;;5056202;28;20225;-80
2023/01/15 13:40:02;;;;;;;1.90;1.33;;;9.60;99.90;;;;;;5056369;28;20248;-79
2023/01/15 13:42:32;;;;;;;1.55;1.08;;;9.50;99.90;;;;;;5056306;28;20228;-79
2023/01/15 13:45:03;;;;;;;3.83;2.38;;;9.40;99.90;;;;;;5055701;28;20299;-77
2023/01/15 13:47:33;;;;;;;5.00;3.22;;;9.40;99.90;;;;;;5058577;28;20240;-79
2023/01/15 13:50:05;;;;;;;5.00;3.00;;;9.40;99.90;;;;;;5059003;28;20234;-79
2023/01/15 13:52:34;;;;;;;3.70;2.10;;;9.40;99.90;;;;;;5049319;28;20228;-79
2023/01/15 13:55:12;;;;;;;3.30;3.00;;;9.30;99.90;;;;;;5058577;28;20220;-79
2023/01/15 13:57:41;;;;;;;2.05;1.85;;;9.30;99.90;;;;;;5060587;28;20224;-81
2023/01/15 14:00:29;;;;;;;3.58;1.45;;;9.20;99.90;;;;;;5049241;28;20237;-80
2023/01/15 14:03:00;;;;;;;1.38;1.27;;;9.20;99.90;;;;;;5058786;28;20224;-80
2023/01/15 14:05:36;;;;;;;3.42;1.67;;;9.20;99.90;;;;;;5062518;28;20275;-80
2023/01/15 14:08:16;;;;;;;7.25;2.10;;;9.20;99.90;;;;;;5059585;28;20220;-77